Time;durP1;ratioP1;P1;durP2;ratioP2;P2;SDS_P1;SDS_P2;PMS_P1;PMS_P2;Temp;Humidity;BMP_temperature;BMP_pressure;BME280_temperature;BME280_humidity;BME280_pressure;Samples;Min_cycle;Max_cycle;Signal;HPM_P1;HPM_P2
2021/11/14 00:01:56;;;;;;;;;;;10.40;99.90;;;;;;5074468;28;19916;-76
2021/11/14 00:04:21;;;;;;;;;;;10.40;99.90;;;;;;5075983;28;20310;-76
2021/11/14 00:06:47;;;;;;;;;;;10.50;99.90;;;;;;5075641;28;19942;-76
2021/11/14 00:09:13;;;;;;;;;;;10.50;99.90;;;;;;5073700;28;19912;-76
2021/11/14 00:11:39;;;;;;;;;;;10.50;99.90;;;;;;5075822;28;19937;-76
2021/11/14 00:14:05;;;;;;;;;;;10.60;99.90;;;;;;5074091;28;20242;-76
2021/11/14 00:16:30;;;;;;;;;;;10.50;99.90;;;;;;5071639;28;20294;-75
2021/11/14 00:18:57;;;;;;;;;;;10.50;99.90;;;;;;5075256;28;19912;-76
2021/11/14 00:21:23;;;;;;;;;;;10.50;99.90;;;;;;5077626;28;19991;-75
2021/11/14 00:23:49;;;;;;;;;;;10.40;99.90;;;;;;5074947;28;19925;-75
2021/11/14 00:26:15;;;;;;;;;;;10.50;99.90;;;;;;5076435;28;19919;-76
2021/11/14 00:28:42;;;;;;;;;;;10.40;99.90;;;;;;5069734;28;19920;-76
2021/11/14 00:31:11;;;;;;;;;;;10.40;99.90;;;;;;5071078;28;19916;-76
2021/11/14 00:33:41;;;;;;;;;;;10.40;99.90;;;;;;5070335;28;19923;-76
2021/11/14 00:36:08;;;;;;;;;;;10.40;99.90;;;;;;5066869;28;19928;-76
2021/11/14 00:38:34;;;;;;;;;;;10.40;99.90;;;;;;5084336;28;19928;-76
2021/11/14 00:40:59;;;;;;;;;;;10.30;99.90;;;;;;5071865;28;19916;-76
2021/11/14 00:43:25;;;;;;;;;;;10.30;99.90;;;;;;5070040;28;19927;-76
2021/11/14 00:45:51;;;;;;;;;;;10.30;99.90;;;;;;5067538;28;20649;-76
2021/11/14 00:48:17;;;;;;;;;;;10.30;99.90;;;;;;5067691;28;19916;-76
2021/11/14 00:50:45;;;;;;;;;;;10.30;99.90;;;;;;5068236;28;19928;-76
2021/11/14 00:53:12;;;;;;;;;;;10.40;99.90;;;;;;5068290;28;19943;-76
2021/11/14 00:55:38;;;;;;;;;;;10.40;99.90;;;;;;5068515;28;20237;-76
2021/11/14 00:58:04;;;;;;;;;;;10.40;99.90;;;;;;5067525;28;19972;-76
2021/11/14 01:00:30;;;;;;;;;;;10.40;99.90;;;;;;5066477;28;20260;-76
2021/11/14 01:02:56;;;;;;;;;;;10.40;99.90;;;;;;5064084;28;19939;-75
2021/11/14 01:05:23;;;;;;;;;;;10.40;99.90;;;;;;5065081;28;19917;-76
2021/11/14 01:07:49;;;;;;;;;;;10.40;99.90;;;;;;5069290;28;19916;-76
2021/11/14 01:10:16;;;;;;;;;;;10.50;99.90;;;;;;5072077;28;19917;-76
2021/11/14 01:12:42;;;;;;;;;;;10.40;99.90;;;;;;5071721;28;19916;-76
2021/11/14 01:15:09;;;;;;;;;;;10.40;99.90;;;;;;5071482;28;19927;-76
2021/11/14 01:17:41;;;;;;;;;;;10.40;99.90;;;;;;5070844;28;19921;-76
2021/11/14 01:20:08;;;;;;;;;;;10.30;99.90;;;;;;5071556;28;19920;-76
2021/11/14 01:22:34;;;;;;;;;;;10.40;99.90;;;;;;5068680;28;19923;-75
2021/11/14 01:25:00;;;;;;;;;;;10.40;99.90;;;;;;5070154;28;20203;-75
2021/11/14 01:27:26;;;;;;;;;;;10.40;99.90;;;;;;5072095;28;20321;-76
2021/11/14 01:29:52;;;;;;;;;;;10.30;99.90;;;;;;5066241;28;19917;-76
2021/11/14 01:32:17;;;;;;;;;;;10.30;99.90;;;;;;5072533;28;19916;-76
2021/11/14 01:34:43;;;;;;;;;;;10.30;99.90;;;;;;5070881;28;20322;-76
2021/11/14 01:37:09;;;;;;;;;;;10.30;99.90;;;;;;5070082;28;20050;-75
2021/11/14 01:39:34;;;;;;;;;;;10.30;99.90;;;;;;5083211;28;19973;-76
2021/11/14 01:42:00;;;;;;;;;;;10.30;99.90;;;;;;5071422;28;19916;-76
2021/11/14 01:44:26;;;;;;;;;;;10.30;99.90;;;;;;5074356;28;19923;-76
2021/11/14 01:46:51;;;;;;;;;;;10.40;99.90;;;;;;5072024;28;19919;-76
2021/11/14 01:49:17;;;;;;;;;;;10.30;99.90;;;;;;5074864;28;19943;-76
2021/11/14 01:51:42;;;;;;;;;;;10.30;99.90;;;;;;5073579;28;20015;-75
2021/11/14 01:54:08;;;;;;;;;;;10.40;99.90;;;;;;5086717;28;20234;-75
2021/11/14 01:56:34;;;;;;;;;;;10.30;99.90;;;;;;5073315;28;19974;-75
2021/11/14 01:58:59;;;;;;;;;;;10.30;99.90;;;;;;5073093;28;19916;-75
2021/11/14 02:01:30;;;;;;;;;;;10.30;99.90;;;;;;5072976;28;20252;-75
2021/11/14 02:03:57;;;;;;;;;;;10.30;99.90;;;;;;5082731;28;20376;-76
2021/11/14 02:06:24;;;;;;;;;;;10.30;99.90;;;;;;5076708;28;19990;-76
2021/11/14 02:08:50;;;;;;;;;;;10.30;99.90;;;;;;5086463;28;19924;-76
2021/11/14 02:11:17;;;;;;;;;;;10.30;99.90;;;;;;5073287;28;19916;-75
2021/11/14 02:13:44;;;;;;;;;;;10.30;99.90;;;;;;5073556;28;20334;-76
2021/11/14 02:16:10;;;;;;;;;;;10.30;99.90;;;;;;5086545;28;19923;-76
2021/11/14 02:18:35;;;;;;;;;;;10.30;99.90;;;;;;5073310;28;19913;-76
2021/11/14 02:21:01;;;;;;;;;;;10.30;99.90;;;;;;5073845;28;19925;-76
2021/11/14 02:23:26;;;;;;;;;;;10.30;99.90;;;;;;5075885;28;20325;-77
2021/11/14 02:25:53;;;;;;;;;;;10.20;99.90;;;;;;5072650;28;19918;-76
2021/11/14 02:28:19;;;;;;;;;;;10.20;99.90;;;;;;5076466;28;20027;-76
2021/11/14 02:30:45;;;;;;;;;;;10.20;99.90;;;;;;5073893;28;20363;-76
2021/11/14 02:33:11;;;;;;;;;;;10.20;99.90;;;;;;5075582;28;19974;-76
2021/11/14 02:35:37;;;;;;;;;;;10.30;99.90;;;;;;5073672;28;19917;-76
2021/11/14 02:38:03;;;;;;;;;;;10.30;99.90;;;;;;5073329;28;19924;-76
2021/11/14 02:40:29;;;;;;;;;;;10.20;99.90;;;;;;5073623;28;19920;-76
2021/11/14 02:42:55;;;;;;;;;;;10.20;99.90;;;;;;5074200;28;19931;-76
2021/11/14 02:45:22;;;;;;;;;;;10.20;99.90;;;;;;5072331;28;19916;-76
2021/11/14 02:47:49;;;;;;;;;;;10.20;99.90;;;;;;5071348;28;19913;-76
2021/11/14 02:50:14;;;;;;;;;;;10.20;99.90;;;;;;5072333;28;19916;-76
2021/11/14 02:52:40;;;;;;;;;;;10.20;99.90;;;;;;5072057;28;20295;-76
2021/11/14 02:55:07;;;;;;;;;;;10.20;99.90;;;;;;5072447;28;20379;-76
2021/11/14 02:57:33;;;;;;;;;;;10.20;99.90;;;;;;5072696;28;20006;-76
2021/11/14 02:59:59;;;;;;;;;;;10.20;99.90;;;;;;5071054;28;20339;-76
2021/11/14 03:02:25;;;;;;;;;;;10.20;99.90;;;;;;5086612;28;19974;-76
2021/11/14 03:04:50;;;;;;;;;;;10.20;99.90;;;;;;5073696;28;20331;-76
2021/11/14 03:07:16;;;;;;;;;;;10.20;99.90;;;;;;5070633;28;19916;-76
2021/11/14 03:09:42;;;;;;;;;;;10.20;99.90;;;;;;5071195;28;20287;-76
2021/11/14 03:12:08;;;;;;;;;;;10.20;99.90;;;;;;5071616;28;20002;-76
2021/11/14 03:14:34;;;;;;;;;;;10.20;99.90;;;;;;5071704;28;19967;-81
2021/11/14 03:17:00;;;;;;;;;;;10.20;99.90;;;;;;5072723;28;20294;-76
2021/11/14 03:19:26;;;;;;;;;;;10.20;99.90;;;;;;5073872;28;20192;-75
2021/11/14 03:21:51;;;;;;;;;;;10.20;99.90;;;;;;5065860;28;19947;-75
2021/11/14 03:24:17;;;;;;;;;;;10.20;99.90;;;;;;5071686;28;19924;-76
2021/11/14 03:26:43;;;;;;;;;;;10.20;99.90;;;;;;5071933;28;20233;-75
2021/11/14 03:29:09;;;;;;;;;;;10.10;99.90;;;;;;5070651;28;19920;-76
2021/11/14 03:31:34;;;;;;;;;;;10.20;99.90;;;;;;5073655;28;19916;-76
2021/11/14 03:34:00;;;;;;;;;;;10.20;99.90;;;;;;5086560;28;19919;-76
2021/11/14 03:36:26;;;;;;;;;;;10.20;99.90;;;;;;5073873;28;19912;-76
2021/11/14 03:38:54;;;;;;;;;;;10.20;99.90;;;;;;5070443;28;19926;-76
2021/11/14 03:41:21;;;;;;;;;;;10.10;99.90;;;;;;5071695;28;19927;-75
2021/11/14 03:43:48;;;;;;;;;;;10.10;99.90;;;;;;5073031;28;19939;-75
2021/11/14 03:46:13;;;;;;;;;;;10.10;99.90;;;;;;5069211;28;19912;-76
2021/11/14 03:48:40;;;;;;;;;;;10.10;99.90;;;;;;5070835;28;20261;-76
2021/11/14 03:51:06;;;;;;;;;;;10.10;99.90;;;;;;5086491;28;20253;-75
2021/11/14 03:53:32;;;;;;;;;;;10.00;99.90;;;;;;5066219;28;19921;-75
2021/11/14 03:55:57;;;;;;;;;;;10.10;99.90;;;;;;5073255;28;19961;-76
2021/11/14 03:58:23;;;;;;;;;;;10.00;99.90;;;;;;5074837;28;19936;-77
2021/11/14 04:00:51;;;;;;;;;;;10.00;99.90;;;;;;5074289;28;19921;-76
2021/11/14 04:03:17;;;;;;;;;;;10.10;99.90;;;;;;5073641;28;19920;-76
2021/11/14 04:05:44;;;;;;;;;;;10.10;99.90;;;;;;5075355;28;19920;-76
2021/11/14 04:08:11;;;;;;;;;;;10.10;99.90;;;;;;5073027;28;19919;-76
2021/11/14 04:10:38;;;;;;;;;;;10.10;99.90;;;;;;5072017;28;19918;-76
2021/11/14 04:13:03;;;;;;;;;;;10.10;99.90;;;;;;5089803;28;19955;-76
2021/11/14 04:15:29;;;;;;;;;;;10.10;99.90;;;;;;5072687;28;20303;-75
2021/11/14 04:17:57;;;;;;;;;;;10.10;99.90;;;;;;5070410;28;20287;-76
2021/11/14 04:20:30;;;;;;;;;;;10.10;99.90;;;;;;5072938;28;20291;-76
2021/11/14 04:22:56;;;;;;;;;;;10.10;99.90;;;;;;5072915;28;19927;-76
2021/11/14 04:25:22;;;;;;;;;;;10.10;99.90;;;;;;5072629;28;19967;-75
2021/11/14 04:27:48;;;;;;;;;;;10.10;99.90;;;;;;5073637;28;19917;-75
2021/11/14 04:30:14;;;;;;;;;;;10.10;99.90;;;;;;5075753;28;19916;-76
2021/11/14 04:32:40;;;;;;;;;;;10.10;99.90;;;;;;5072630;28;19912;-75
2021/11/14 04:35:06;;;;;;;;;;;10.10;99.90;;;;;;5074254;28;19927;-75
2021/11/14 04:37:31;;;;;;;;;;;10.10;99.90;;;;;;5072560;28;19920;-76
2021/11/14 04:39:57;;;;;;;;;;;10.10;99.90;;;;;;5073407;28;19966;-75
2021/11/14 04:42:23;;;;;;;;;;;10.10;99.90;;;;;;5073288;28;19970;-76
2021/11/14 04:44:48;;;;;;;;;;;10.10;99.90;;;;;;5075414;28;19928;-76
2021/11/14 04:47:14;;;;;;;;;;;10.00;99.90;;;;;;5073663;28;19962;-76
2021/11/14 04:49:40;;;;;;;;;;;10.00;99.90;;;;;;5074381;28;19920;-76
2021/11/14 04:52:05;;;;;;;;;;;10.00;99.90;;;;;;5074425;28;19986;-75
2021/11/14 04:54:31;;;;;;;;;;;10.00;99.90;;;;;;5076953;28;19919;-76
2021/11/14 04:56:57;;;;;;;;;;;10.00;99.90;;;;;;5073305;28;19920;-76
2021/11/14 04:59:23;;;;;;;;;;;10.10;99.90;;;;;;5074471;28;19924;-76
2021/11/14 05:01:48;;;;;;;;;;;10.10;99.90;;;;;;5075361;28;20434;-75
2021/11/14 05:04:14;;;;;;;;;;;10.10;99.90;;;;;;5075201;28;19920;-76
2021/11/14 05:06:39;;;;;;;;;;;10.10;99.90;;;;;;5072805;28;19912;-75
2021/11/14 05:09:05;;;;;;;;;;;10.10;99.90;;;;;;5073300;28;20231;-76
2021/11/14 05:11:31;;;;;;;;;;;10.10;99.90;;;;;;5080706;28;19912;-75
2021/11/14 05:13:56;;;;;;;;;;;10.10;99.90;;;;;;5073555;28;20200;-76
2021/11/14 05:16:22;;;;;;;;;;;10.00;99.90;;;;;;5074542;28;19917;-75
2021/11/14 05:18:48;;;;;;;;;;;10.00;99.90;;;;;;5078156;28;20312;-76
2021/11/14 05:21:14;;;;;;;;;;;10.00;99.90;;;;;;5071887;28;20258;-75
2021/11/14 05:23:39;;;;;;;;;;;10.00;99.90;;;;;;5072250;28;19926;-76
2021/11/14 05:26:05;;;;;;;;;;;10.00;99.90;;;;;;5073717;28;19913;-75
2021/11/14 05:28:31;;;;;;;;;;;10.00;99.90;;;;;;5075750;28;19966;-75
2021/11/14 05:30:56;;;;;;;;;;;10.00;99.90;;;;;;5074627;28;19913;-75
2021/11/14 05:33:22;;;;;;;;;;;10.00;99.90;;;;;;5072575;28;19916;-76
2021/11/14 05:35:48;;;;;;;;;;;10.00;99.90;;;;;;5074506;28;20000;-76
2021/11/14 05:38:14;;;;;;;;;;;10.00;99.90;;;;;;5073747;28;19924;-75
2021/11/14 05:40:40;;;;;;;;;;;9.90;99.90;;;;;;5075950;28;19995;-75
2021/11/14 05:43:06;;;;;;;;;;;9.90;99.90;;;;;;5073070;28;19913;-75
2021/11/14 05:45:32;;;;;;;;;;;9.90;99.90;;;;;;5074592;28;19920;-76
2021/11/14 05:47:58;;;;;;;;;;;10.00;99.90;;;;;;5072738;28;20302;-76
2021/11/14 05:50:24;;;;;;;;;;;9.90;99.90;;;;;;5074277;28;19920;-76
2021/11/14 05:52:50;;;;;;;;;;;9.90;99.90;;;;;;5075308;28;19917;-75
2021/11/14 05:55:16;;;;;;;;;;;9.90;99.90;;;;;;5076895;28;19970;-77
2021/11/14 06:00:13;;;;;;;;;;;9.90;99.90;;;;;;5073772;28;20003;-76
2021/11/14 06:07:33;;;;;;;;;;;9.80;99.90;;;;;;5072740;28;19917;-76
2021/11/14 06:10:01;;;;;;;;;;;9.80;99.90;;;;;;5072730;28;20269;-75
2021/11/14 06:12:27;;;;;;;;;;;9.80;99.90;;;;;;5087001;28;20776;-75
2021/11/14 06:14:52;;;;;;;;;;;9.90;99.90;;;;;;5074651;28;19968;-76
2021/11/14 06:17:20;;;;;;;;;;;9.90;99.90;;;;;;5070520;28;19920;-75
2021/11/14 06:19:47;;;;;;;;;;;9.80;99.90;;;;;;5073894;28;19923;-75
2021/11/14 06:22:12;;;;;;;;;;;9.90;99.90;;;;;;5071328;28;19912;-75
2021/11/14 06:24:38;;;;;;;;;;;9.80;99.90;;;;;;5071212;28;19932;-75
2021/11/14 06:27:04;;;;;;;;;;;9.80;99.90;;;;;;5074156;28;19916;-75
2021/11/14 06:29:29;;;;;;;;;;;9.90;99.90;;;;;;5072363;28;19999;-76
2021/11/14 06:31:55;;;;;;;;;;;9.80;99.90;;;;;;5071787;28;19912;-75
2021/11/14 06:34:20;;;;;;;;;;;9.80;99.90;;;;;;5072196;28;20409;-75
2021/11/14 06:36:46;;;;;;;;;;;9.80;99.90;;;;;;5072578;28;20003;-75
2021/11/14 06:39:12;;;;;;;;;;;9.80;99.90;;;;;;5073454;28;19977;-75
2021/11/14 06:41:37;;;;;;;;;;;9.80;99.90;;;;;;5072187;28;19913;-75
2021/11/14 06:44:03;;;;;;;;;;;9.80;99.90;;;;;;5071464;28;19921;-76
2021/11/14 06:46:28;;;;;;;;;;;9.70;99.90;;;;;;5072590;28;19948;-75
2021/11/14 06:48:54;;;;;;;;;;;9.70;99.90;;;;;;5074664;28;20263;-76
2021/11/14 06:51:20;;;;;;;;;;;9.70;99.90;;;;;;5070494;28;19966;-75
2021/11/14 06:53:45;;;;;;;;;;;9.70;99.90;;;;;;5072911;28;20253;-75
2021/11/14 06:56:11;;;;;;;;;;;9.70;99.90;;;;;;5071961;28;19918;-75
2021/11/14 06:58:36;;;;;;;;;;;9.70;99.90;;;;;;5073337;28;19917;-75
2021/11/14 07:01:02;;;;;;;;;;;9.70;99.90;;;;;;5072487;28;19924;-75
2021/11/14 07:03:28;;;;;;;;;;;9.70;99.90;;;;;;5069730;28;19919;-75
2021/11/14 07:05:53;;;;;;;;;;;9.80;99.90;;;;;;5073754;28;19916;-75
2021/11/14 07:08:19;;;;;;;;;;;9.70;99.90;;;;;;5071693;28;20356;-76
2021/11/14 07:10:45;;;;;;;;;;;9.70;99.90;;;;;;5073772;28;19916;-75
2021/11/14 07:13:11;;;;;;;;;;;9.80;99.90;;;;;;5071747;28;19912;-75
2021/11/14 07:15:36;;;;;;;;;;;9.70;99.90;;;;;;5071170;28;19912;-75
2021/11/14 07:18:02;;;;;;;;;;;9.70;99.90;;;;;;5070612;28;19999;-75
2021/11/14 07:20:28;;;;;;;;;;;9.70;99.90;;;;;;5067127;28;19917;-76
2021/11/14 07:22:53;;;;;;;;;;;9.70;99.90;;;;;;5071240;28;20027;-75
2021/11/14 07:25:19;;;;;;;;;;;9.70;99.90;;;;;;5071461;28;19916;-75
2021/11/14 07:27:49;;;;;;;;;;;9.70;99.90;;;;;;5072949;28;20232;-75
2021/11/14 07:30:14;;;;;;;;;;;9.70;99.90;;;;;;5072452;28;19916;-76
2021/11/14 07:32:41;;;;;;;;;;;9.80;99.90;;;;;;5073347;28;19949;-75
2021/11/14 07:35:07;;;;;;;;;;;9.80;99.90;;;;;;5072000;28;19920;-76
2021/11/14 07:37:32;;;;;;;;;;;9.90;99.90;;;;;;5075320;28;19919;-75
2021/11/14 07:39:58;;;;;;;;;;;9.80;99.90;;;;;;5075741;28;20239;-76
2021/11/14 07:42:24;;;;;;;;;;;9.90;99.90;;;;;;5076294;28;19920;-75
2021/11/14 07:44:49;;;;;;;;;;;9.90;99.90;;;;;;5075465;28;19959;-76
2021/11/14 07:47:15;;;;;;;;;;;9.90;99.90;;;;;;5078230;28;20253;-76
2021/11/14 07:49:40;;;;;;;;;;;9.90;99.90;;;;;;5078728;28;19912;-75
2021/11/14 07:52:07;;;;;;;;;;;9.90;99.90;;;;;;5078405;28;19916;-76
2021/11/14 07:54:32;;;;;;;;;;;9.90;99.90;;;;;;5088169;28;19912;-76
2021/11/14 07:56:58;;;;;;;;;;;9.90;99.90;;;;;;5077956;28;19974;-76
2021/11/14 07:59:26;;;;;;;;;;;9.90;99.90;;;;;;5074010;28;19916;-76
2021/11/14 08:01:52;;;;;;;;;;;9.90;99.90;;;;;;5074850;28;19916;-76
2021/11/14 08:04:18;;;;;;;;;;;9.90;99.90;;;;;;5073670;28;19924;-76
2021/11/14 08:06:43;;;;;;;;;;;9.90;99.90;;;;;;5074867;28;19916;-76
2021/11/14 08:09:09;;;;;;;;;;;9.90;99.90;;;;;;5089108;28;19974;-76
2021/11/14 08:11:35;;;;;;;;;;;9.90;99.90;;;;;;5076677;28;19928;-76
2021/11/14 08:14:00;;;;;;;;;;;10.00;99.90;;;;;;5074354;28;19919;-76
2021/11/14 08:16:26;;;;;;;;;;;9.90;99.90;;;;;;5073966;28;19964;-76
2021/11/14 08:18:51;;;;;;;;;;;10.00;99.90;;;;;;5073135;28;19935;-77
2021/11/14 08:21:17;;;;;;;;;;;10.00;99.90;;;;;;5076898;28;20235;-76
2021/11/14 08:23:43;;;;;;;;;;;10.00;99.90;;;;;;5076537;28;19916;-76
2021/11/14 08:26:08;;;;;;;;;;;10.00;99.90;;;;;;5071719;28;19927;-76
2021/11/14 08:28:34;;;;;;;;;;;10.00;99.90;;;;;;5076172;28;19924;-76
2021/11/14 08:30:59;;;;;;;;;;;10.00;99.90;;;;;;5072874;28;19913;-76
2021/11/14 08:33:25;;;;;;;;;;;10.10;99.90;;;;;;5074571;28;19935;-76
2021/11/14 08:35:51;;;;;;;;;;;10.00;99.90;;;;;;5072645;28;20006;-76
2021/11/14 08:38:17;;;;;;;;;;;10.00;99.90;;;;;;5073624;28;19920;-76
2021/11/14 08:40:43;;;;;;;;;;;10.00;99.90;;;;;;5073964;28;19916;-76
2021/11/14 08:43:09;;;;;;;;;;;10.00;99.90;;;;;;5074017;28;19935;-76
2021/11/14 08:45:35;;;;;;;;;;;10.10;99.90;;;;;;5077301;28;20524;-76
2021/11/14 08:48:01;;;;;;;;;;;10.10;99.90;;;;;;5074063;28;19939;-76
2021/11/14 08:50:27;;;;;;;;;;;10.10;99.90;;;;;;5074024;28;19928;-76
2021/11/14 08:52:54;;;;;;;;;;;10.10;99.90;;;;;;5073644;28;19921;-76
2021/11/14 08:55:20;;;;;;;;;;;10.00;99.90;;;;;;5077414;28;19917;-76
2021/11/14 08:57:46;;;;;;;;;;;10.10;99.90;;;;;;5076313;28;19951;-76
2021/11/14 09:00:13;;;;;;;;;;;10.10;99.90;;;;;;5074517;28;19970;-76
2021/11/14 09:02:39;;;;;;;;;;;10.10;99.90;;;;;;5087494;28;19920;-75
2021/11/14 09:05:05;;;;;;;;;;;10.10;99.90;;;;;;5075061;28;20349;-76
2021/11/14 09:07:31;;;;;;;;;;;10.10;99.90;;;;;;5075505;28;20003;-76
2021/11/14 09:09:56;;;;;;;;;;;10.10;99.90;;;;;;5069431;28;19995;-75
2021/11/14 09:12:22;;;;;;;;;;;10.10;99.90;;;;;;5074775;28;19984;-76
2021/11/14 09:14:48;;;;;;;;;;;10.20;99.90;;;;;;5075269;28;19999;-76
2021/11/14 09:17:14;;;;;;;;;;;10.20;99.90;;;;;;5073327;28;20117;-76
2021/11/14 09:19:41;;;;;;;;;;;10.20;99.90;;;;;;5075902;28;20342;-76
2021/11/14 09:22:07;;;;;;;;;;;10.20;99.90;;;;;;5074352;28;19912;-76
2021/11/14 09:24:33;;;;;;;;;;;10.20;99.90;;;;;;5073350;28;20007;-89
2021/11/14 09:26:58;;;;;;;;;;;10.20;99.90;;;;;;5074789;28;19928;-76
2021/11/14 09:29:24;;;;;;;;;;;10.20;99.90;;;;;;5074642;28;19956;-76
2021/11/14 09:31:49;;;;;;;;;;;10.20;99.90;;;;;;5069468;28;20011;-77
2021/11/14 09:34:15;;;;;;;;;;;10.20;99.90;;;;;;5075508;28;20210;-76
2021/11/14 09:36:41;;;;;;;;;;;10.20;99.90;;;;;;5088030;28;19916;-76
2021/11/14 09:39:08;;;;;;;;;;;10.20;99.90;;;;;;5074442;28;19924;-87
2021/11/14 09:41:39;;;;;;;;;;;10.20;99.90;;;;;;5082674;28;19965;-86
2021/11/14 09:44:04;;;;;;;;;;;10.20;99.90;;;;;;5072114;28;20216;-76
2021/11/14 09:46:30;;;;;;;;;;;10.30;99.90;;;;;;5083164;28;19919;-77
2021/11/14 09:48:57;;;;;;;;;;;10.30;99.90;;;;;;5073526;28;19978;-77
2021/11/14 09:51:26;;;;;;;;;;;10.30;99.90;;;;;;5072407;28;20189;-76
2021/11/14 09:53:53;;;;;;;;;;;10.30;99.90;;;;;;5084791;28;20338;-77
2021/11/14 09:56:19;;;;;;;;;;;10.40;99.90;;;;;;5076597;28;20302;-76
2021/11/14 09:58:44;;;;;;;;;;;10.40;99.90;;;;;;5073293;28;19919;-76
2021/11/14 10:01:10;;;;;;;;;;;10.50;99.90;;;;;;5064191;28;19927;-77
2021/11/14 10:03:35;;;;;;;;;;;10.40;99.90;;;;;;5070331;28;19913;-77
2021/11/14 10:06:01;;;;;;;;;;;10.60;99.90;;;;;;5066646;28;20447;-77
2021/11/14 10:08:34;;;;;;;;;;;10.60;99.90;;;;;;5068988;28;19912;-84
2021/11/14 10:11:00;;;;;;;;;;;10.60;99.90;;;;;;5066015;28;19955;-77
2021/11/14 10:13:27;;;;;;;;;;;10.60;99.90;;;;;;5068099;28;19955;-77
2021/11/14 10:16:05;;;;;;;;;;;10.60;99.90;;;;;;5068720;28;19917;-77
2021/11/14 10:18:31;;;;;;;;;;;10.60;99.90;;;;;;5071553;28;20366;-85
2021/11/14 10:21:01;;;;;;;;;;;10.70;99.90;;;;;;5054328;28;20004;-76
2021/11/14 10:23:28;;;;;;;;;;;10.70;99.90;;;;;;5071474;28;19921;-76
2021/11/14 10:25:55;;;;;;;;;;;10.70;99.90;;;;;;5074504;28;19970;-76
2021/11/14 10:28:25;;;;;;;;;;;10.70;99.90;;;;;;5065497;28;19955;-76
2021/11/14 10:30:51;;;;;;;;;;;10.70;99.90;;;;;;5072067;28;19917;-76
2021/11/14 10:33:17;;;;;;;;;;;10.70;99.90;;;;;;5070395;28;19967;-79
2021/11/14 10:35:46;;;;;;;;;;;10.70;99.90;;;;;;5072327;28;20294;-77
2021/11/14 10:38:14;;;;;;;;;;;10.70;99.90;;;;;;5068079;28;19931;-78
2021/11/14 10:40:42;;;;;;;;;;;10.70;99.90;;;;;;5071856;28;19913;-77
2021/11/14 10:43:08;;;;;;;;;;;10.70;99.90;;;;;;5071675;28;20357;-79
2021/11/14 10:45:36;;;;;;;;;;;10.70;99.90;;;;;;5070160;28;19921;-76
2021/11/14 10:48:06;;;;;;;;;;;10.70;99.90;;;;;;5073883;28;19977;-81
2021/11/14 10:50:34;;;;;;;;;;;10.70;99.90;;;;;;5069004;28;19916;-78
2021/11/14 10:53:08;;;;;;;;;;;10.80;99.90;;;;;;5070892;28;19912;-76
2021/11/14 10:55:37;;;;;;;;;;;10.80;99.90;;;;;;5014796;28;19916;-77
2021/11/14 10:58:03;;;;;;;;;;;10.80;99.90;;;;;;5058098;28;19919;-76
2021/11/14 11:00:29;;;;;;;;;;;10.80;99.90;;;;;;5002803;28;19923;-87
2021/11/14 11:02:54;;;;;;;;;;;10.80;99.90;;;;;;5071622;28;19944;-76
2021/11/14 11:05:21;;;;;;;;;;;10.80;99.90;;;;;;5076959;28;19975;-89
2021/11/14 11:08:00;;;;;;;;;;;10.70;99.90;;;;;;5074844;28;20019;-77
2021/11/14 11:10:34;;;;;;;;;;;10.70;99.90;;;;;;5070952;28;21072;-93
2021/11/14 11:13:00;;;;;;;;;;;10.70;99.90;;;;;;5092691;28;19969;-78
2021/11/14 11:15:26;;;;;;;;;;;10.70;99.90;;;;;;5071637;28;20011;-83
2021/11/14 11:17:52;;;;;;;;;;;10.70;99.90;;;;;;5052214;28;20015;-76
2021/11/14 11:20:20;;;;;;;;;;;10.70;99.90;;;;;;5075327;28;19917;-76
2021/11/14 11:22:53;;;;;;;;;;;10.80;99.90;;;;;;5057010;28;19920;-80
2021/11/14 11:25:31;;;;;;;;;;;10.80;99.90;;;;;;5019606;28;21837;-91
2021/11/14 11:27:57;;;;;;;;;;;10.80;99.90;;;;;;5053739;28;19913;-77
2021/11/14 11:30:31;;;;;;;;;;;10.80;99.90;;;;;;5013192;28;19920;-77
2021/11/14 11:32:57;;;;;;;;;;;10.80;99.90;;;;;;5073208;28;20231;-85
2021/11/14 11:35:22;;;;;;;;;;;10.80;99.90;;;;;;5072281;28;19931;-79
2021/11/14 11:37:49;;;;;;;;;;;10.80;99.90;;;;;;5086910;28;19924;-78
2021/11/14 11:40:14;;;;;;;;;;;10.80;99.90;;;;;;5075113;28;20307;-77
2021/11/14 11:42:41;;;;;;;;;;;10.70;99.90;;;;;;5071696;28;19972;-89
2021/11/14 11:45:08;;;;;;;;;;;10.70;99.90;;;;;;5071175;28;19921;-77
2021/11/14 11:47:39;;;;;;;;;;;10.70;99.90;;;;;;5082589;28;19912;-77
2021/11/14 11:50:06;;;;;;;;;;;10.70;99.90;;;;;;5074588;28;20411;-77
2021/11/14 11:52:38;;;;;;;;;;;10.70;99.90;;;;;;5066779;28;20035;-78
2021/11/14 11:55:15;;;;;;;;;;;10.70;99.90;;;;;;5073783;28;19920;-77
2021/11/14 11:57:41;;;;;;;;;;;10.70;99.90;;;;;;5075929;28;19927;-77
2021/11/14 12:00:07;;;;;;;;;;;10.80;99.90;;;;;;5071532;28;20226;-76
2021/11/14 12:02:33;;;;;;;;;;;10.70;99.90;;;;;;5074400;28;20003;-77
2021/11/14 12:05:04;;;;;;;;;;;10.70;99.90;;;;;;5088341;28;19924;-76
2021/11/14 12:07:33;;;;;;;;;;;10.60;99.90;;;;;;5075125;28;19912;-77
2021/11/14 12:10:05;;;;;;;;;;;10.70;99.90;;;;;;5074500;28;19925;-78
2021/11/14 12:12:33;;;;;;;;;;;10.60;99.90;;;;;;5072775;28;20377;-76
2021/11/14 12:15:06;;;;;;;;;;;10.60;99.90;;;;;;5053360;28;19958;-79
2021/11/14 12:17:32;;;;;;;;;;;10.60;99.90;;;;;;5072535;28;19918;-79
2021/11/14 12:20:06;;;;;;;;;;;10.60;99.90;;;;;;5033511;28;19920;-77
2021/11/14 12:22:48;;;;;;;;;;;10.60;99.90;;;;;;5074575;28;20302;-77
2021/11/14 12:25:24;;;;;;;;;;;10.60;99.90;;;;;;5066243;28;19981;-78
2021/11/14 12:27:57;;;;;;;;;;;10.60;99.90;;;;;;5075718;28;19951;-77
2021/11/14 12:30:23;;;;;;;;;;;10.60;99.90;;;;;;5072166;28;19955;-92
2021/11/14 12:32:50;;;;;;;;;;;10.60;99.90;;;;;;5075254;28;19924;-81
2021/11/14 12:35:17;;;;;;;;;;;10.60;99.90;;;;;;5074775;28;20357;-77
2021/11/14 12:38:01;;;;;;;;;;;10.60;99.90;;;;;;5075630;28;19920;-78
2021/11/14 12:40:46;;;;;;;;;;;10.60;99.90;;;;;;5075114;28;19912;-77
2021/11/14 12:43:14;;;;;;;;;;;10.60;99.90;;;;;;5073779;28;19913;-93
2021/11/14 12:45:59;;;;;;;;;;;10.60;99.90;;;;;;5075829;28;19916;-77
2021/11/14 12:48:26;;;;;;;;;;;10.60;99.90;;;;;;5072760;28;19917;-78
2021/11/14 12:51:04;;;;;;;;;;;10.60;99.90;;;;;;5075017;28;20011;-92
2021/11/14 12:53:43;;;;;;;;;;;10.60;99.90;;;;;;5074993;28;19913;-89
2021/11/14 12:56:24;;;;;;;;;;;10.60;99.90;;;;;;5076392;28;19997;-90
2021/11/14 12:58:50;;;;;;;;;;;10.60;99.90;;;;;;5078450;28;19920;-88
2021/11/14 13:01:20;;;;;;;;;;;10.60;99.90;;;;;;5073931;28;19918;-92
2021/11/14 13:03:45;;;;;;;;;;;10.70;99.90;;;;;;5075253;28;19924;-90
2021/11/14 13:06:16;;;;;;;;;;;10.70;99.90;;;;;;5075780;28;19920;-77
2021/11/14 13:08:42;;;;;;;;;;;10.60;99.90;;;;;;5075571;28;19912;-93
2021/11/14 13:11:17;;;;;;;;;;;10.70;99.90;;;;;;5075705;28;19912;-84
2021/11/14 13:13:43;;;;;;;;;;;10.70;99.90;;;;;;5073488;28;20007;-91
2021/11/14 13:16:10;;;;;;;;;;;10.60;99.90;;;;;;5076069;28;20014;-78
2021/11/14 13:18:36;;;;;;;;;;;10.60;99.90;;;;;;5073224;28;19916;-77
2021/11/14 13:21:12;;;;;;;;;;;10.70;99.90;;;;;;5074932;28;19958;-91
2021/11/14 13:23:38;;;;;;;;;;;10.70;99.90;;;;;;5072645;28;20211;-77
2021/11/14 13:26:04;;;;;;;;;;;10.70;99.90;;;;;;5064858;28;19924;-75
2021/11/14 13:28:29;;;;;;;;;;;10.70;99.90;;;;;;5066108;28;20639;-75
2021/11/14 13:30:55;;;;;;;;;;;10.70;99.90;;;;;;5073307;28;20230;-76
2021/11/14 13:33:20;;;;;;;;;;;10.70;99.90;;;;;;5072399;28;19921;-76
2021/11/14 13:35:46;;;;;;;;;;;10.70;99.90;;;;;;5073392;28;19913;-76
2021/11/14 13:38:13;;;;;;;;;;;10.70;99.90;;;;;;5072990;28;19920;-76
2021/11/14 13:40:38;;;;;;;;;;;10.70;99.90;;;;;;5074890;28;19913;-76
2021/11/14 13:43:05;;;;;;;;;;;10.70;99.90;;;;;;5074595;28;20215;-89
2021/11/14 13:45:34;;;;;;;;;;;10.70;99.90;;;;;;5074117;28;19989;-76
2021/11/14 13:48:04;;;;;;;;;;;10.60;99.90;;;;;;5088177;28;19992;-76
2021/11/14 13:50:31;;;;;;;;;;;10.60;99.90;;;;;;5073051;28;19912;-76
2021/11/14 13:53:00;;;;;;;;;;;10.50;99.90;;;;;;5088031;28;19913;-75
2021/11/14 13:55:25;;;;;;;;;;;10.60;99.90;;;;;;5075895;28;20304;-76
2021/11/14 13:57:51;;;;;;;;;;;10.60;99.90;;;;;;5073080;28;19916;-77
2021/11/14 14:00:18;;;;;;;;;;;10.60;99.90;;;;;;5087194;28;19921;-75
2021/11/14 14:02:44;;;;;;;;;;;10.60;99.90;;;;;;5077919;28;19923;-75
2021/11/14 14:05:11;;;;;;;;;;;10.50;99.90;;;;;;5072797;28;20231;-76
2021/11/14 14:07:37;;;;;;;;;;;10.50;99.90;;;;;;5073352;28;19917;-76
2021/11/14 14:10:05;;;;;;;;;;;10.50;99.90;;;;;;5072579;28;19943;-77
2021/11/14 14:12:31;;;;;;;;;;;10.60;99.90;;;;;;5075625;28;19917;-76
2021/11/14 14:14:58;;;;;;;;;;;10.50;99.90;;;;;;5073275;28;19939;-77
2021/11/14 14:17:25;;;;;;;;;;;10.50;99.90;;;;;;5071117;28;19920;-76
2021/11/14 14:19:51;;;;;;;;;;;10.50;99.90;;;;;;5078959;28;21202;-76
2021/11/14 14:22:17;;;;;;;;;;;10.50;99.90;;;;;;5085030;28;19924;-76
2021/11/14 14:24:48;;;;;;;;;;;10.50;99.90;;;;;;5064330;28;19920;-76